Royal, AR

10:57 AM CDT on August 20, 2014 (GMT -0500)
Pearcy, AR | Change Station
CLOSE
Current Station
Personal Weather Station
Location: Pearcy, AR
Elevation: 545 ft
Nearby Weather Stations
Active Advisory: Special Statement

Elev 545 ft 34.43 °N, 93.25 °W | Updated 17 seconds ago

Clear
Clear
85.6 °F
Feels Like 99 °F
N
4.7
Wind Variable Wind from ESE
Gusts 9.8 mph

Today
High -- | Low -- °F
--% Chance of Precip.
Yesterday
High -- | Low -- °F
Precip. -- in
6:37 AM 7:54 PM
Waning Crescent, 21% visible
Pressure 30.01 in
Visibility 10.0 miles
Clouds Clear
Heat Index 99 °F
Dew Point 79 °F
Humidity 81%
Rainfall 0.00 in
Snow Depth Not available.
UV 5 out of 12
Pollen 8.80 out of 12
Air Quality Not available.
Flu Activity Not available.
METAR KHOT 201453Z AUTO 24005KT 10SM CLR 27/22 A3004 RMK AO2 SLP163 T02720217 51012

More Conditions Fewer Conditions

Pressure 30.01 in
Visibility 10.0 miles
Clouds Clear
Heat Index 99 °F
Dew Point 79 °F
Humidity 81%
Rainfall 0.00 in
Snow Depth Not available.
UV 5 out of 12
Pollen 8.80 out of 12
Air Quality Not available.
Flu Activity Not available.
METAR KHOT 201453Z AUTO 24005KT 10SM CLR 27/22 A3004 RMK AO2 SLP163 T02720217 51012

More Conditions Fewer Conditions

10-Day Weather Forecast

Almanac

Astronomy

Aug. 20, 2014 Rise Set
Actual Time 6:37 AM CDT 7:54 PM CDT
Civil Twilight 6:11 AM CDT 8:21 PM CDT
Nautical Twilight 5:39 AM CDT 8:52 PM CDT
Astronomical Twilight 5:07 AM CDT 9:25 PM CDT
Moon 2:22 AM CDT 4:36 PM CDT
Length of Visible Light 14h 09m
Length of Day
13h 17m
Tomorrow will be 1m 58s shorter.
Waning Crescent, 21% of the Moon is Illuminated
Today
Waning Crescent
Aug 25
New
Sep 2
First Quarter
Sep 8
Full
Sep 15
Last Quarter

Today's Extremes

State Highs State Lows

Community

WunderPhotos

Upload Photos

1,745,668 photos uploaded!

WunderBlogs® & News

Nearby

Snow Depth

Station Depth Elevation
No new snow has been reported.

Earthquake Activity

City Distance Mag. Time & Date
No recent earthquake activity has been reported nearby.
Minimum magnitude displayed is 2.5.

Coastal Water Temperatures

Place Temperature
No Stations Reporting

Nearby Weather Stations